createdAt,value
2019-04-21T00:01:03.439Z,96906.99
2019-04-21T00:03:52.214Z,96908.01
2019-04-21T00:06:35.320Z,96899.22
2019-04-21T00:09:11.183Z,96903.55
2019-04-21T00:11:41.010Z,96894.41
2019-04-21T00:14:01.916Z,96896.61
2019-04-21T00:16:25.617Z,96893.13
2019-04-21T00:21:44.895Z,96890.16
2019-04-21T00:25:04.118Z,96886.36
2019-04-21T00:30:15.822Z,96884.86
2019-04-21T00:38:13.155Z,96877.05
2019-04-21T00:40:45.001Z,96877.91
2019-04-21T00:43:09.044Z,96872.60
2019-04-21T00:48:37.896Z,96868.44
2019-04-21T00:54:13.315Z,96860.31
2019-04-21T00:56:41.061Z,96867.11
2019-04-21T00:59:05.761Z,96866.14
2019-04-21T01:01:31.240Z,96868.95
2019-04-21T01:04:06.632Z,96865.95
2019-04-21T01:06:35.241Z,96862.79
2019-04-21T01:09:23.682Z,96858.66
2019-04-21T01:11:55.243Z,96860.98
2019-04-21T01:17:32.746Z,96847.35
2019-04-21T01:19:58.428Z,96851.84
2019-04-21T01:27:53.749Z,96847.00
2019-04-21T01:31:05.958Z,96850.97
2019-04-21T01:33:50.797Z,96840.69
2019-04-21T01:36:21.370Z,96840.37
2019-04-21T01:38:56.573Z,96840.67
2019-04-21T01:41:28.098Z,96840.81
2019-04-21T01:46:39.302Z,96838.98
2019-04-21T01:49:10.606Z,96842.96
2019-04-21T01:54:55.828Z,96838.48
2019-04-21T01:57:37.346Z,96838.30
2019-04-21T02:00:06.315Z,96833.28
2019-04-21T02:06:00.785Z,96833.46
2019-04-21T02:08:21.563Z,96834.78
2019-04-21T02:11:00.667Z,96832.80
2019-04-21T02:13:16.908Z,96831.98
2019-04-21T02:15:59.310Z,96832.32
2019-04-21T02:18:39.349Z,96827.50
2019-04-21T02:21:00.078Z,96833.45
2019-04-21T02:23:46.409Z,96831.97
2019-04-21T02:36:55.755Z,96828.55
2019-04-21T02:39:21.239Z,96828.25
2019-04-21T02:44:43.300Z,96813.66
2019-04-21T02:47:59.209Z,96807.49
2019-04-21T02:50:28.248Z,96805.61
2019-04-21T03:04:11.234Z,96803.59
2019-04-21T03:09:47.172Z,96797.30
2019-04-21T03:12:28.869Z,96801.25
2019-04-21T03:18:04.495Z,96791.41
2019-04-21T03:23:02.008Z,96794.53
2019-04-21T03:31:01.934Z,96782.58
2019-04-21T03:41:30.515Z,96790.13
2019-04-21T03:49:12.595Z,96780.44
2019-04-21T03:59:45.516Z,96785.02
2019-04-21T04:10:34.831Z,96777.98
2019-04-21T04:12:52.566Z,96780.77
2019-04-21T04:15:31.494Z,96778.18
2019-04-21T04:17:49.920Z,96790.08
2019-04-21T04:32:59.456Z,96775.97
2019-04-21T04:38:07.066Z,96767.22
2019-04-21T04:40:57.835Z,96766.78
2019-04-21T04:43:28.568Z,96765.61
2019-04-21T04:54:05.877Z,96764.64
2019-04-21T05:12:57.003Z,96749.48
2019-04-21T05:15:12.663Z,96752.12
2019-04-21T05:22:35.262Z,96754.34
2019-04-21T05:27:52.599Z,96756.56
2019-04-21T05:33:33.946Z,96748.25
2019-04-21T05:36:15.783Z,96740.38
2019-04-21T05:44:06.259Z,96741.16
2019-04-21T05:46:31.473Z,96742.72
2019-04-21T05:52:03.804Z,96741.30
2019-04-21T05:54:48.301Z,96741.02
2019-04-21T05:57:10.135Z,96744.03
2019-04-21T05:59:43.668Z,96741.25
2019-04-21T06:08:31.395Z,96739.81
2019-04-21T06:11:04.843Z,96743.28
2019-04-21T06:13:35.067Z,96745.45
2019-04-21T06:16:02.039Z,96744.27
2019-04-21T06:21:05.330Z,96744.95
2019-04-21T06:23:36.784Z,96737.48
2019-04-21T06:26:19.812Z,96733.83
2019-04-21T06:28:42.664Z,96731.66
2019-04-21T06:33:40.570Z,96733.64
2019-04-21T06:36:42.249Z,96731.28
2019-04-21T06:41:48.530Z,96735.06
2019-04-21T06:49:40.556Z,96729.47
2019-04-21T06:54:52.311Z,96731.07
2019-04-21T06:59:43.424Z,96725.48
2019-04-21T07:10:20.983Z,96714.47
2019-04-21T07:18:23.020Z,96709.27
2019-04-21T07:26:15.673Z,96704.03
2019-04-21T07:28:47.684Z,96697.93
2019-04-21T07:31:32.063Z,96694.18
2019-04-21T07:33:54.230Z,96705.38
2019-04-21T07:36:28.661Z,96696.08
2019-04-21T07:38:39.916Z,96683.52
2019-04-21T07:41:02.578Z,96681.41
2019-04-21T07:46:11.706Z,96684.19
2019-04-21T07:49:08.050Z,96686.88
2019-04-21T07:51:57.081Z,96680.10
2019-04-21T07:54:32.058Z,96676.86
2019-04-21T07:56:40.713Z,96672.38
2019-04-21T07:59:40.884Z,96678.23
2019-04-21T08:01:56.412Z,96678.73
2019-04-21T08:04:42.432Z,96677.27
2019-04-21T08:07:15.132Z,96679.61
2019-04-21T08:10:03.456Z,96680.95
2019-04-21T08:12:35.156Z,96680.32
2019-04-21T08:15:18.245Z,96668.80
2019-04-21T08:17:36.570Z,96668.67
2019-04-21T08:20:03.701Z,96670.86
2019-04-21T08:22:44.783Z,96668.55
2019-04-21T08:25:11.798Z,96667.19
2019-04-21T08:27:44.240Z,96661.69
2019-04-21T08:30:05.083Z,96663.37
2019-04-21T08:32:49.544Z,96663.83
2019-04-21T08:35:34.380Z,96664.13
2019-04-21T08:37:36.981Z,96661.27
2019-04-21T08:40:09.844Z,96662.23
2019-04-21T08:42:38.256Z,96665.91
2019-04-21T08:45:10.788Z,96662.75
2019-04-21T08:47:39.714Z,96657.02
2019-04-21T08:50:12.975Z,96654.25
2019-04-21T08:52:45.739Z,96654.77
2019-04-21T08:55:33.650Z,96647.17
2019-04-21T09:03:43.398Z,96633.63
2019-04-21T09:06:13.853Z,96631.98
2019-04-21T09:11:28.786Z,96621.79
2019-04-21T09:14:01.589Z,96619.22
2019-04-21T09:22:00.519Z,96608.08
2019-04-21T09:27:04.863Z,96605.73
2019-04-21T09:31:54.464Z,96598.48
2019-04-21T09:37:11.935Z,96587.78
2019-04-21T09:47:46.496Z,96571.81
2019-04-21T09:52:57.749Z,96574.20
2019-04-21T09:55:50.009Z,96568.20
2019-04-21T10:09:21.867Z,96546.63
2019-04-21T10:14:39.375Z,96537.72
2019-04-21T10:17:27.573Z,96531.86
2019-04-21T10:22:32.937Z,96526.33
2019-04-21T10:27:36.961Z,96518.20
2019-04-21T10:30:46.862Z,96516.48
2019-04-21T10:33:16.708Z,96516.52
2019-04-21T10:35:46.834Z,96509.08
2019-04-21T10:38:28.234Z,96511.02
2019-04-21T10:40:47.553Z,96507.14
2019-04-21T10:48:41.103Z,96493.19
2019-04-21T10:51:10.800Z,96487.87
2019-04-21T10:56:34.118Z,96472.55
2019-04-21T10:58:58.501Z,96471.34
2019-04-21T11:01:29.394Z,96480.08
2019-04-21T11:06:38.793Z,96478.15
2019-04-21T11:09:47.889Z,96465.20
2019-04-21T11:12:17.535Z,96466.52
2019-04-21T11:14:47.209Z,96461.27
2019-04-21T11:17:16.551Z,96454.36
2019-04-21T11:19:44.961Z,96455.50
2019-04-21T11:22:14.620Z,96455.28
2019-04-21T11:24:47.064Z,96452.36
2019-04-21T11:27:15.239Z,96449.92
2019-04-21T11:29:43.640Z,96445.14
2019-04-21T11:32:12.816Z,96447.39
2019-04-21T11:34:41.363Z,96438.33
2019-04-21T11:37:12.336Z,96436.19
2019-04-21T11:39:50.020Z,96435.68
2019-04-21T11:42:12.683Z,96434.89
2019-04-21T11:44:41.688Z,96427.73
2019-04-21T11:47:12.217Z,96430.33
2019-04-21T11:49:41.164Z,96427.13
2019-04-21T11:52:11.218Z,96416.92
2019-04-21T11:54:40.639Z,96417.17
2019-04-21T11:57:17.550Z,96412.86
2019-04-21T11:59:39.672Z,96406.22
2019-04-21T12:02:08.179Z,96412.33
2019-04-21T12:04:36.717Z,96410.52
2019-04-21T12:07:05.183Z,96405.99
2019-04-21T12:09:33.577Z,96406.05
2019-04-21T12:12:03.290Z,96399.05
2019-04-21T12:14:32.171Z,96403.48
2019-04-21T12:17:01.121Z,96395.16
2019-04-21T12:19:30.987Z,96393.88
2019-04-21T12:22:09.705Z,96384.66
2019-04-21T12:24:32.952Z,96380.65
2019-04-21T12:27:02.269Z,96382.30
2019-04-21T12:29:30.828Z,96381.88
2019-04-21T12:32:01.391Z,96375.71
2019-04-21T12:34:30.237Z,96373.05
2019-04-21T12:36:59.101Z,96373.34
2019-04-21T12:39:27.682Z,96363.64
2019-04-21T12:41:56.441Z,96363.13
2019-04-21T12:44:24.902Z,96361.26
2019-04-21T12:46:54.031Z,96364.52
2019-04-21T12:49:22.504Z,96358.05
2019-04-21T12:51:51.555Z,96353.44
2019-04-21T12:54:21.585Z,96349.17
2019-04-21T12:56:51.595Z,96346.20
2019-04-21T12:59:21.186Z,96340.77
2019-04-21T13:01:50.785Z,96344.86
2019-04-21T13:04:19.734Z,96334.82
2019-04-21T13:06:48.221Z,96338.10
2019-04-21T13:09:20.213Z,96330.51
2019-04-21T13:11:47.167Z,96330.50
2019-04-21T13:14:15.861Z,96325.63
2019-04-21T13:16:45.677Z,96317.22
2019-04-21T13:19:15.378Z,96315.06
2019-04-21T13:21:43.922Z,96317.22
2019-04-21T13:24:13.608Z,96311.27
2019-04-21T13:26:47.203Z,96316.69
2019-04-21T13:29:12.371Z,96312.63
2019-04-21T13:31:40.773Z,96308.81
2019-04-21T13:34:10.475Z,96304.48
2019-04-21T13:36:39.363Z,96295.83
2019-04-21T13:39:48.808Z,96292.00
2019-04-21T13:41:59.912Z,96286.34
2019-04-21T13:44:19.503Z,96277.39
2019-04-21T13:46:49.225Z,96288.23
2019-04-21T13:49:19.105Z,96274.13
2019-04-21T13:51:48.112Z,96274.37
2019-04-21T13:54:17.877Z,96266.53
2019-04-21T13:56:46.977Z,96265.44
2019-04-21T13:59:16.084Z,96258.65
2019-04-21T14:01:45.676Z,96258.91
2019-04-21T14:04:15.704Z,96257.28
2019-04-21T14:06:44.709Z,96251.27
2019-04-21T14:09:15.609Z,96251.28
2019-04-21T14:11:45.256Z,96246.38
2019-04-21T14:14:14.419Z,96243.66
2019-04-21T14:16:44.145Z,96238.52
2019-04-21T14:19:13.264Z,96239.59
2019-04-21T14:21:41.605Z,96233.88
2019-04-21T14:24:10.859Z,96233.62
2019-04-21T14:26:40.456Z,96239.30
2019-04-21T14:29:09.863Z,96231.42
2019-04-21T14:31:40.216Z,96231.70
2019-04-21T14:34:09.954Z,96230.34
2019-04-21T14:36:38.993Z,96220.27
2019-04-21T14:39:12.510Z,96222.19
2019-04-21T14:41:42.195Z,96224.34
2019-04-21T14:44:11.076Z,96222.19
2019-04-21T14:46:44.981Z,96217.33
2019-04-21T14:49:21.345Z,96214.33
2019-04-21T14:51:54.669Z,96216.20
2019-04-21T14:54:24.709Z,96216.48
2019-04-21T14:56:53.475Z,96213.17
2019-04-21T14:59:22.121Z,96211.55
2019-04-21T15:01:51.685Z,96202.55
2019-04-21T15:04:21.028Z,96207.42
2019-04-21T15:06:51.720Z,96208.27
2019-04-21T15:09:20.999Z,96211.77
2019-04-21T15:11:49.906Z,96203.36
2019-04-21T15:14:20.095Z,96204.38
2019-04-21T15:16:49.055Z,96197.58
2019-04-21T15:19:17.636Z,96194.06
2019-04-21T15:21:46.081Z,96194.65
2019-04-21T15:24:14.473Z,96194.14
2019-04-21T15:26:44.322Z,96184.91
2019-04-21T15:29:12.972Z,96184.91
2019-04-21T15:31:44.687Z,96183.00
2019-04-21T15:34:12.998Z,96185.45
2019-04-21T15:36:41.901Z,96187.36
2019-04-21T15:39:11.760Z,96185.70
2019-04-21T15:41:40.837Z,96175.66
2019-04-21T15:44:09.864Z,96176.78
2019-04-21T15:46:39.916Z,96181.95
2019-04-21T15:49:09.168Z,96169.75
2019-04-21T15:51:38.066Z,96172.23
2019-04-21T15:54:07.082Z,96170.06
2019-04-21T15:56:38.437Z,96162.45
2019-04-21T15:59:24.574Z,96161.08
2019-04-21T16:01:57.254Z,96154.32
2019-04-21T16:04:25.659Z,96155.50
2019-04-21T16:06:55.500Z,96151.97
2019-04-21T16:09:26.874Z,96153.63
2019-04-21T16:11:55.691Z,96150.09
2019-04-21T16:14:24.864Z,96149.58
2019-04-21T16:16:53.733Z,96149.54
2019-04-21T16:19:23.017Z,96147.38
2019-04-21T16:21:52.818Z,96143.33
2019-04-21T16:24:21.370Z,96142.26
2019-04-21T16:26:52.990Z,96139.02
2019-04-21T16:29:22.984Z,96144.75
2019-04-21T16:31:51.445Z,96140.16
2019-04-21T16:34:20.008Z,96130.11
2019-04-21T16:36:49.749Z,96129.83
2019-04-21T16:39:19.633Z,96125.50
2019-04-21T16:41:48.183Z,96126.05
2019-04-21T16:44:16.953Z,96123.61
2019-04-21T16:46:45.501Z,96122.24
2019-04-21T16:49:13.965Z,96121.16
2019-04-21T16:51:42.504Z,96121.16
2019-04-21T16:54:13.660Z,96121.69
2019-04-21T16:56:43.941Z,96117.34
2019-04-21T16:59:16.854Z,96121.92
2019-04-21T17:01:46.778Z,96123.76
2019-04-21T17:04:16.045Z,96127.22
2019-04-21T17:06:45.091Z,96118.23
2019-04-21T17:09:14.673Z,96123.88
2019-04-21T17:11:46.122Z,96120.08
2019-04-21T17:14:33.070Z,96116.24
2019-04-21T17:17:09.899Z,96120.23
2019-04-21T17:19:22.066Z,96119.67
2019-04-21T17:21:44.043Z,96119.38
2019-04-21T17:24:12.747Z,96110.67
2019-04-21T17:26:44.122Z,96110.89
2019-04-21T17:29:12.338Z,96109.19
2019-04-21T17:31:41.392Z,96108.03
2019-04-21T17:34:14.598Z,96104.17
2019-04-21T17:36:41.119Z,96106.48
2019-04-21T17:39:11.157Z,96109.11
2019-04-21T17:41:48.795Z,96109.83
2019-04-21T17:44:10.685Z,96103.44
2019-04-21T17:46:47.767Z,96109.29
2019-04-21T17:49:10.855Z,96106.22
2019-04-21T17:51:55.615Z,96115.02
2019-04-21T17:54:37.161Z,96113.49
2019-04-21T17:57:22.781Z,96116.60
2019-04-21T17:59:56.599Z,96119.70
2019-04-21T18:02:22.995Z,96115.78
2019-04-21T18:04:49.593Z,96118.05
2019-04-21T18:07:27.451Z,96117.39
2019-04-21T18:10:03.339Z,96118.63
2019-04-21T18:12:26.243Z,96124.13
2019-04-21T18:14:54.116Z,96132.39
2019-04-21T18:17:14.051Z,96127.94
2019-04-21T18:19:46.967Z,96130.81
2019-04-21T18:22:24.024Z,96134.50
2019-04-21T18:24:59.285Z,96129.26
2019-04-21T18:27:25.105Z,96125.06
2019-04-21T18:29:55.481Z,96124.38
2019-04-21T18:32:30.208Z,96126.06
2019-04-21T18:35:13.086Z,96121.59
2019-04-21T18:37:51.701Z,96123.58
2019-04-21T18:40:25.587Z,96126.37
2019-04-21T18:43:23.910Z,96129.45
2019-04-21T18:45:47.954Z,96129.08
2019-04-21T18:48:18.932Z,96128.13
2019-04-21T18:51:02.989Z,96136.63
2019-04-21T18:53:46.659Z,96139.63
2019-04-21T18:56:05.257Z,96140.31
2019-04-21T18:58:30.675Z,96147.10
2019-04-21T19:01:09.059Z,96148.24
2019-04-21T19:03:37.692Z,96148.20
2019-04-21T19:06:08.809Z,96149.02
2019-04-21T19:08:53.463Z,96149.69
2019-04-21T19:11:19.029Z,96152.55
2019-04-21T19:14:23.545Z,96150.45
2019-04-21T19:16:42.878Z,96155.45
2019-04-21T19:21:33.527Z,96148.28
2019-04-21T19:24:18.578Z,96149.43
2019-04-21T19:26:46.800Z,96142.44
2019-04-21T19:29:20.013Z,96148.09
2019-04-21T19:31:46.630Z,96147.22
2019-04-21T19:34:02.044Z,96150.05
2019-04-21T19:36:23.704Z,96150.10
2019-04-21T19:39:03.644Z,96150.77
2019-04-21T19:41:38.233Z,96149.53
2019-04-21T19:44:14.529Z,96147.18
2019-04-21T19:46:38.266Z,96143.92
2019-04-21T19:49:16.886Z,96146.98
2019-04-21T19:51:36.273Z,96149.30
2019-04-21T19:54:01.507Z,96145.81
2019-04-21T19:56:24.131Z,96146.72
2019-04-21T19:58:52.977Z,96146.16
2019-04-21T20:01:21.549Z,96147.44
2019-04-21T20:03:55.538Z,96136.50
2019-04-21T20:06:33.080Z,96144.08
2019-04-21T20:09:12.166Z,96142.61
2019-04-21T20:11:38.774Z,96140.68
2019-04-21T20:14:37.906Z,96141.64
2019-04-21T20:16:41.639Z,96140.24
2019-04-21T20:18:57.398Z,96147.96
2019-04-21T20:21:22.823Z,96144.53
2019-04-21T20:23:51.740Z,96150.49
2019-04-21T20:26:24.625Z,96142.79
2019-04-21T20:29:00.069Z,96136.52
2019-04-21T20:31:37.360Z,96136.91
2019-04-21T20:34:14.116Z,96135.14
2019-04-21T20:36:42.919Z,96136.48
2019-04-21T20:39:01.042Z,96134.19
2019-04-21T20:41:35.512Z,96140.36
2019-04-21T20:44:13.283Z,96142.77
2019-04-21T20:46:38.879Z,96129.06
2019-04-21T20:49:04.618Z,96130.28
2019-04-21T20:51:37.997Z,96132.02
2019-04-21T20:54:12.721Z,96132.88
2019-04-21T20:56:46.444Z,96127.86
2019-04-21T20:59:10.925Z,96126.85
2019-04-21T21:01:39.515Z,96129.55
2019-04-21T21:04:06.391Z,96126.69
2019-04-21T21:06:39.069Z,96123.17
2019-04-21T21:09:10.415Z,96127.30
2019-04-21T21:11:36.994Z,96130.09
2019-04-21T21:14:13.106Z,96134.98
2019-04-21T21:16:46.379Z,96130.57
2019-04-21T21:19:17.125Z,96129.87
2019-04-21T21:21:41.084Z,96127.88
2019-04-21T21:24:15.381Z,96125.23
2019-04-21T21:26:47.070Z,96129.84
2019-04-21T21:29:19.822Z,96122.86
2019-04-21T21:31:48.923Z,96129.36
2019-04-21T21:34:15.053Z,96124.21
2019-04-21T21:36:48.952Z,96125.86
2019-04-21T21:39:15.459Z,96114.48
2019-04-21T21:41:33.566Z,96119.09
2019-04-21T21:44:05.847Z,96115.09
2019-04-21T21:46:44.372Z,96109.02
2019-04-21T21:49:06.332Z,96104.22
2019-04-21T21:51:50.030Z,96097.55
2019-04-21T21:54:00.895Z,96100.75
2019-04-21T21:56:29.323Z,96102.58
2019-04-21T21:59:01.194Z,96098.98
2019-04-21T22:01:35.803Z,96097.55
2019-04-21T22:04:08.445Z,96096.94
2019-04-21T22:06:38.661Z,96093.76
2019-04-21T22:09:01.673Z,96091.46
2019-04-21T22:11:30.078Z,96088.90
2019-04-21T22:14:03.205Z,96087.63
2019-04-21T22:16:43.221Z,96088.05
2019-04-21T22:19:14.329Z,96084.77
2019-04-21T22:21:47.629Z,96082.50
2019-04-21T22:24:07.230Z,96075.64
2019-04-21T22:26:29.492Z,96078.12
2019-04-21T22:28:58.209Z,96071.27
2019-04-21T22:31:31.834Z,96074.94
2019-04-21T22:34:02.120Z,96072.56
2019-04-21T22:36:40.431Z,96081.16
2019-04-21T22:39:13.099Z,96082.17
2019-04-21T22:41:34.427Z,96081.69
2019-04-21T22:43:59.284Z,96081.91
2019-04-21T22:46:28.574Z,96075.87
2019-04-21T22:49:03.742Z,96077.73
2019-04-21T22:51:34.834Z,96073.02
2019-04-21T22:53:59.506Z,96081.00
2019-04-21T22:56:32.044Z,96072.40
2019-04-21T22:58:58.968Z,96070.42
2019-04-21T23:01:33.412Z,96076.55
2019-04-21T23:04:01.372Z,96073.47
2019-04-21T23:06:32.326Z,96078.11
2019-04-21T23:08:59.219Z,96078.11
2019-04-21T23:11:34.937Z,96077.79
2019-04-21T23:14:04.278Z,96074.73
2019-04-21T23:16:33.710Z,96076.03
2019-04-21T23:19:17.026Z,96071.38
2019-04-21T23:21:49.725Z,96075.05
2019-04-21T23:24:16.191Z,96070.39
2019-04-21T23:26:42.432Z,96071.31
2019-04-21T23:29:21.143Z,96069.73
2019-04-21T23:31:50.208Z,96061.14
2019-04-21T23:34:00.024Z,96056.03
2019-04-21T23:36:33.345Z,96055.60
2019-04-21T23:38:58.769Z,96054.95
2019-04-21T23:41:33.599Z,96062.55
2019-04-21T23:44:02.984Z,96067.55
2019-04-21T23:46:33.017Z,96066.78
2019-04-21T23:49:12.173Z,96063.86
2019-04-21T23:51:39.753Z,96063.67
2019-04-21T23:53:59.434Z,96059.92
2019-04-21T23:56:35.464Z,96056.45
2019-04-21T23:59:03.206Z,96054.94
